Time;durP1;ratioP1;P1;durP2;ratioP2;P2;SDS_P1;SDS_P2;PMS_P1;PMS_P2;Temp;Humidity;BMP_temperature;BMP_pressure;BME280_temperature;BME280_humidity;BME280_pressure;Samples;Min_cycle;Max_cycle;Signal;HPM_P1;HPM_P2
2023/03/31 00:01:40;;;;;;;6.10;4.80;;;;;;;0.59;100.00;99246.83;105620;1254;74272;-63
2023/03/31 00:04:11;;;;;;;6.10;4.50;;;;;;;0.60;100.00;99248.78;105726;1256;67535;-64
2023/03/31 00:06:41;;;;;;;7.10;4.90;;;;;;;0.59;100.00;99248.98;105841;1256;72258;-63
2023/03/31 00:09:11;;;;;;;7.40;5.60;;;;;;;0.59;100.00;99248.02;105956;1251;61671;-65
2023/03/31 00:11:40;;;;;;;7.50;5.40;;;;;;;0.58;100.00;99242.79;105933;1256;61042;-67
2023/03/31 00:14:09;;;;;;;7.10;5.20;;;;;;;0.57;100.00;99245.63;105885;1253;74232;-68
2023/03/31 00:16:39;;;;;;;7.20;5.20;;;;;;;0.56;100.00;99241.58;105771;1254;68140;-67
2023/03/31 00:19:16;;;;;;;7.30;5.00;;;;;;;0.56;100.00;99241.11;106285;1254;74440;-66
2023/03/31 00:21:49;;;;;;;5.70;4.30;;;;;;;0.56;100.00;99244.86;106186;1253;63085;-68
2023/03/31 00:24:18;;;;;;;6.30;4.90;;;;;;;0.56;100.00;99243.16;105815;1251;61847;-65
2023/03/31 00:26:47;;;;;;;6.80;4.90;;;;;;;0.56;100.00;99239.25;105892;1255;74646;-64
2023/03/31 00:29:15;;;;;;;6.30;4.20;;;;;;;0.55;100.00;99239.29;105921;1255;67609;-63
2023/03/31 00:31:44;;;;;;;5.90;4.10;;;;;;;0.55;100.00;99240.64;106048;1255;73972;-65
2023/03/31 00:34:13;;;;;;;10.70;5.40;;;;;;;0.56;100.00;99244.35;105735;1256;61820;-65
2023/03/31 00:36:47;;;;;;;6.90;5.20;;;;;;;0.56;100.00;99240.27;106149;1253;61567;-66
2023/03/31 00:39:17;;;;;;;6.50;5.00;;;;;;;0.55;100.00;99242.63;105842;1252;73553;-66
2023/03/31 00:41:46;;;;;;;6.90;4.60;;;;;;;0.53;100.00;99242.13;105747;1256;69865;-66
2023/03/31 00:44:23;;;;;;;6.20;4.60;;;;;;;0.53;100.00;99245.84;105853;1254;73400;-66
2023/03/31 00:46:52;;;;;;;6.90;5.30;;;;;;;0.52;100.00;99246.77;105721;1252;61969;-68
2023/03/31 00:49:43;;;;;;;8.90;5.30;;;;;;;0.51;100.00;99246.87;106054;1253;61901;-68
2023/03/31 00:52:41;;;;;;;;;;;;;;;0.50;100.00;99250.20;105821;1253;74591;-66
2023/03/31 00:55:14;;;;;;;6.50;4.20;;;;;;;0.50;100.00;99249.72;106002;1256;69304;-66
2023/03/31 00:57:45;;;;;;;8.70;4.60;;;;;;;0.49;100.00;99246.70;105701;1254;74227;-66
2023/03/31 01:00:14;;;;;;;6.00;4.30;;;;;;;0.49;100.00;99248.41;106137;1251;61685;-66
2023/03/31 01:02:51;;;;;;;7.10;4.70;;;;;;;0.49;100.00;99252.17;106035;1252;60331;-66
2023/03/31 01:05:24;;;;;;;7.00;4.80;;;;;;;0.50;100.00;99252.25;105673;1253;73586;-66
2023/03/31 01:07:53;;;;;;;7.00;4.50;;;;;;;0.50;100.00;99254.62;105812;1253;68680;-65
2023/03/31 01:10:22;;;;;;;6.60;4.80;;;;;;;0.51;100.00;99256.30;105929;1256;74186;-66
2023/03/31 01:12:52;;;;;;;7.70;4.50;;;;;;;0.51;100.00;99253.38;105939;1256;61794;-66
2023/03/31 01:15:21;;;;;;;7.00;4.60;;;;;;;0.52;100.00;99255.69;105781;1255;60652;-65
2023/03/31 01:17:49;;;;;;;5.90;3.80;;;;;;;0.52;100.00;99252.05;105941;1256;75055;-65
2023/03/31 01:20:56;;;;;;;7.20;4.60;;;;;;;0.54;100.00;99257.04;105752;1253;68848;-67
2023/03/31 01:23:45;;;;;;;5.60;3.80;;;;;;;0.55;100.00;99256.44;106076;1253;72227;-67
2023/03/31 01:26:48;;;;;;;5.50;4.10;;;;;;;0.56;100.00;99260.63;106004;1256;61806;-65
2023/03/31 01:30:05;;;;;;;6.00;4.10;;;;;;;0.56;100.00;99259.06;105198;1257;60753;-66
2023/03/31 01:33:01;;;;;;;5.20;3.70;;;;;;;0.57;100.00;99260.83;105929;1253;74421;-65
2023/03/31 01:36:07;;;;;;;5.40;3.70;;;;;;;0.57;100.00;99264.73;105900;1251;69131;-68
2023/03/31 01:38:49;;;;;;;6.00;3.90;;;;;;;0.56;100.00;99265.86;105742;1253;73232;-65
2023/03/31 01:41:28;;;;;;;5.70;4.00;;;;;;;0.57;100.00;99269.02;105448;1253;62065;-67
2023/03/31 01:44:16;;;;;;;5.60;4.00;;;;;;;0.57;100.00;99269.01;105822;1252;61835;-68
2023/03/31 01:49:39;;;;;;;6.80;4.30;;;;;;;0.54;100.00;99267.45;102447;1292;600677;-67
2023/03/31 01:52:16;;;;;;;6.10;3.70;;;;;;;0.55;100.00;99269.92;104858;1265;62477;-69
2023/03/31 01:54:51;;;;;;;5.80;3.90;;;;;;;0.54;100.00;99270.17;104863;1267;61196;-68
2023/03/31 01:57:28;;;;;;;5.50;3.80;;;;;;;0.51;100.00;99267.19;104654;1268;73530;-68
2023/03/31 02:00:02;;;;;;;4.60;3.00;;;;;;;0.49;100.00;99269.79;105279;1253;68618;-67
2023/03/31 02:02:50;;;;;;;5.50;3.50;;;;;;;0.49;100.00;99265.84;105914;1251;396655;-68
2023/03/31 02:05:20;;;;;;;5.40;3.40;;;;;;;0.48;100.00;99265.96;105911;1255;61797;-68
2023/03/31 02:08:01;;;;;;;5.60;3.40;;;;;;;0.46;100.00;99267.84;106007;1251;61693;-69
2023/03/31 02:10:30;;;;;;;6.70;3.50;;;;;;;0.45;100.00;99272.04;105845;1254;74650;-67
2023/03/31 02:13:03;;;;;;;5.80;3.80;;;;;;;0.44;100.00;99276.68;105430;1251;68609;-70
2023/03/31 02:15:35;;;;;;;5.30;3.50;;;;;;;0.46;100.00;99275.72;105744;1251;72897;-69
2023/03/31 02:18:10;;;;;;;5.10;3.30;;;;;;;0.47;100.00;99279.23;105629;1251;59612;-67
2023/03/31 02:20:45;;;;;;;4.20;2.70;;;;;;;0.46;100.00;99279.81;105752;1251;60509;-70
2023/03/31 02:23:14;;;;;;;5.20;3.30;;;;;;;0.45;100.00;99281.08;105702;1251;73360;-69
2023/03/31 02:25:51;;;;;;;7.40;3.70;;;;;;;0.44;100.00;99280.98;105780;1253;69548;-67
2023/03/31 02:28:22;;;;;;;5.30;3.30;;;;;;;0.43;100.00;99281.94;105513;1257;74264;-68
2023/03/31 02:31:33;;;;;;;5.30;3.20;;;;;;;0.43;100.00;99283.19;105799;1256;62387;-66
2023/03/31 02:34:04;;;;;;;5.10;3.10;;;;;;;0.43;100.00;99288.61;105910;1251;62069;-66
2023/03/31 02:36:34;;;;;;;5.40;3.10;;;;;;;0.42;100.00;99286.65;105874;1256;74560;-69
2023/03/31 02:39:06;;;;;;;6.40;4.00;;;;;;;0.42;100.00;99289.71;105752;1251;68629;-66
2023/03/31 02:41:35;;;;;;;5.30;3.40;;;;;;;0.42;100.00;99291.95;105960;1255;73225;-68
2023/03/31 02:44:04;;;;;;;5.80;3.30;;;;;;;0.41;100.00;99294.43;105717;1251;61738;-66
2023/03/31 02:46:32;;;;;;;5.40;3.30;;;;;;;0.40;100.00;99294.48;105741;1251;61900;-67
2023/03/31 02:49:02;;;;;;;5.70;3.30;;;;;;;0.41;100.00;99297.40;105577;1254;74349;-65
2023/03/31 02:51:57;;;;;;;5.70;3.50;;;;;;;0.41;100.00;99295.80;105791;1251;68589;-67
2023/03/31 02:54:49;;;;;;;5.90;3.20;;;;;;;0.41;100.00;99297.48;105640;1251;74206;-66
2023/03/31 02:57:37;;;;;;;;;;;;;;;0.41;100.00;99294.41;105803;1256;61292;-66
2023/03/31 03:00:28;;;;;;;5.40;3.80;;;;;;;0.42;100.00;99293.90;105564;1256;59940;-66
2023/03/31 03:03:16;;;;;;;6.30;3.40;;;;;;;0.41;100.00;99289.37;105763;1256;74754;-66
2023/03/31 03:05:48;;;;;;;5.50;3.20;;;;;;;0.40;100.00;99293.66;105662;1257;67716;-66
2023/03/31 03:08:39;;;;;;;5.20;3.40;;;;;;;0.40;100.00;99292.60;105785;1256;73036;-65
2023/03/31 03:11:25;;;;;;;6.60;3.70;;;;;;;0.41;100.00;99292.05;105509;1251;59720;-66
2023/03/31 03:14:04;;;;;;;6.30;3.40;;;;;;;0.41;100.00;99294.25;105687;1253;61345;-65
2023/03/31 03:16:36;;;;;;;5.20;3.60;;;;;;;0.42;100.00;99297.60;105728;1252;72793;-65
2023/03/31 03:19:05;;;;;;;6.20;3.50;;;;;;;0.44;100.00;99298.64;106134;1252;67620;-65
2023/03/31 03:21:34;;;;;;;6.20;3.30;;;;;;;0.46;100.00;99297.41;105956;1253;74209;-65
2023/03/31 03:24:02;;;;;;;6.00;3.30;;;;;;;0.46;100.00;99295.36;106188;1254;60081;-68
2023/03/31 03:26:34;;;;;;;4.90;3.10;;;;;;;0.47;100.00;99296.98;105849;1256;60514;-64
2023/03/31 03:29:03;;;;;;;6.50;3.70;;;;;;;0.48;100.00;99297.91;105754;1256;74671;-65
2023/03/31 03:31:32;;;;;;;6.60;3.50;;;;;;;0.50;100.00;99299.79;105874;1251;69003;-65
2023/03/31 03:34:02;;;;;;;7.50;3.90;;;;;;;0.52;100.00;99301.01;105700;1255;74275;-68
2023/03/31 03:36:31;;;;;;;5.40;3.50;;;;;;;0.52;100.00;99300.46;105907;1256;62227;-65
2023/03/31 03:39:01;;;;;;;5.20;3.50;;;;;;;0.52;100.00;99299.73;105800;1253;61897;-65
2023/03/31 03:41:32;;;;;;;6.50;3.70;;;;;;;0.53;100.00;99296.23;105934;1252;74955;-65
2023/03/31 03:44:00;;;;;;;5.50;3.70;;;;;;;0.54;100.00;99296.56;106094;1253;68977;-68
2023/03/31 03:46:29;;;;;;;5.70;3.70;;;;;;;0.56;100.00;99300.28;105821;1253;74224;-65
2023/03/31 03:49:09;;;;;;;5.90;3.50;;;;;;;0.57;100.00;99303.71;105470;1251;61433;-65
2023/03/31 03:51:38;;;;;;;5.70;3.90;;;;;;;0.60;100.00;99304.69;105922;1252;61831;-64
2023/03/31 03:54:06;;;;;;;7.60;4.20;;;;;;;0.61;100.00;99303.16;105914;1256;74371;-68
2023/03/31 03:56:36;;;;;;;6.20;3.70;;;;;;;0.63;100.00;99301.27;105849;1256;68310;-64
2023/03/31 03:59:06;;;;;;;6.00;3.90;;;;;;;0.65;100.00;99306.58;105836;1256;73313;-68
2023/03/31 04:01:38;;;;;;;5.90;3.70;;;;;;;0.68;100.00;99303.06;105665;1256;61705;-64
2023/03/31 04:04:08;;;;;;;6.60;4.20;;;;;;;0.71;100.00;99307.54;105899;1257;61028;-66
2023/03/31 04:06:37;;;;;;;6.60;3.70;;;;;;;0.76;100.00;99304.91;105800;1251;73549;-65
2023/03/31 04:09:05;;;;;;;6.00;3.30;;;;;;;0.80;100.00;99310.48;105547;1253;68773;-64
2023/03/31 04:11:35;;;;;;;4.60;3.40;;;;;;;0.85;100.00;99311.69;105836;1253;72978;-64
2023/03/31 04:14:03;;;;;;;6.80;4.20;;;;;;;0.89;100.00;99312.17;105757;1251;61934;-66
2023/03/31 04:16:33;;;;;;;5.30;3.60;;;;;;;0.93;100.00;99312.13;106138;1256;62059;-68
2023/03/31 04:19:03;;;;;;;7.20;3.30;;;;;;;0.97;100.00;99315.23;105566;1251;74199;-65
2023/03/31 04:21:35;;;;;;;7.30;3.70;;;;;;;1.01;100.00;99319.81;106317;1252;66899;-64
2023/03/31 04:24:04;;;;;;;6.00;3.80;;;;;;;1.07;100.00;99310.86;105872;1253;74008;-65
2023/03/31 04:26:42;;;;;;;6.10;3.40;;;;;;;1.12;100.00;99307.63;106151;1256;60721;-67
2023/03/31 04:29:12;;;;;;;5.50;3.50;;;;;;;1.18;100.00;99311.67;105794;1251;61836;-64
2023/03/31 04:31:41;;;;;;;4.80;3.10;;;;;;;1.25;100.00;99307.28;105979;1251;74194;-64
2023/03/31 04:34:12;;;;;;;6.10;3.20;;;;;;;1.31;100.00;99307.71;105777;1253;68095;-64
2023/03/31 04:36:45;;;;;;;5.60;3.10;;;;;;;1.35;100.00;99310.04;105889;1256;73155;-65
2023/03/31 04:39:16;;;;;;;6.60;3.30;;;;;;;1.43;100.00;99312.41;105947;1255;62504;-63
2023/03/31 04:41:47;;;;;;;6.00;3.50;;;;;;;1.51;100.00;99313.80;106059;1256;62120;-67
2023/03/31 04:44:16;;;;;;;6.20;3.40;;;;;;;1.59;100.00;99312.83;105883;1252;74469;-64
2023/03/31 04:46:45;;;;;;;5.30;3.20;;;;;;;1.69;100.00;99318.27;105797;1253;67328;-62
2023/03/31 04:49:17;;;;;;;5.60;3.00;;;;;;;1.82;100.00;99322.14;105815;1251;74181;-62
2023/03/31 04:51:48;;;;;;;4.80;2.60;;;;;;;1.95;100.00;99321.55;106018;1254;63432;-66
2023/03/31 04:54:25;;;;;;;6.40;2.80;;;;;;;2.03;100.00;99322.70;105867;1251;61752;-62
2023/03/31 04:56:53;;;;;;;4.60;2.90;;;;;;;2.06;100.00;99318.56;105743;1251;74261;-62
2023/03/31 04:59:22;;;;;;;4.50;2.70;;;;;;;2.09;100.00;99318.45;105762;1256;68690;-62
2023/03/31 05:01:52;;;;;;;4.40;2.70;;;;;;;2.13;100.00;99312.86;105858;1256;73901;-63
2023/03/31 05:04:20;;;;;;;4.70;2.50;;;;;;;2.17;100.00;99312.66;105875;1251;61626;-63
2023/03/31 05:06:50;;;;;;;5.10;2.60;;;;;;;2.22;100.00;99315.00;105702;1256;60556;-63
2023/03/31 05:09:19;;;;;;;4.90;2.80;;;;;;;2.28;100.00;99311.49;105838;1252;74641;-62
2023/03/31 05:11:50;;;;;;;5.80;2.70;;;;;;;2.29;100.00;99314.94;105872;1253;67345;-63
2023/03/31 05:14:19;;;;;;;6.00;2.90;;;;;;;2.33;100.00;99315.44;105928;1256;73926;-64
2023/03/31 05:16:48;;;;;;;3.40;1.80;;;;;;;2.41;100.00;99316.67;105894;1251;60907;-62
2023/03/31 05:19:17;;;;;;;4.00;2.50;;;;;;;2.47;100.00;99315.73;105791;1251;60741;-62
2023/03/31 05:21:45;;;;;;;4.20;2.40;;;;;;;2.51;100.00;99312.41;105894;1253;74361;-67
2023/03/31 05:24:14;;;;;;;4.60;2.60;;;;;;;2.50;100.00;99309.20;105996;1253;67598;-65
2023/03/31 05:26:51;;;;;;;3.50;2.00;;;;;;;2.47;100.00;99310.20;105739;1256;74643;-62
2023/03/31 05:29:20;;;;;;;4.80;2.10;;;;;;;2.45;100.00;99311.80;105644;1256;60071;-62
2023/03/31 05:31:48;;;;;;;4.90;2.00;;;;;;;2.49;100.00;99312.05;105807;1252;61837;-62
2023/03/31 05:34:17;;;;;;;4.70;2.00;;;;;;;2.55;100.00;99311.46;105843;1251;73601;-61
2023/03/31 05:36:47;;;;;;;3.70;2.20;;;;;;;2.63;100.00;99311.02;105909;1252;68604;-61
2023/03/31 05:39:15;;;;;;;3.70;2.10;;;;;;;2.67;100.00;99312.31;105878;1256;74165;-61
2023/03/31 05:41:44;;;;;;;4.20;2.40;;;;;;;2.66;100.00;99314.76;106258;1253;61014;-62
2023/03/31 05:44:13;;;;;;;6.20;2.10;;;;;;;2.69;100.00;99317.48;105834;1255;60577;-61
2023/03/31 05:46:42;;;;;;;5.20;2.40;;;;;;;2.76;100.00;99316.08;105967;1253;73592;-62
2023/03/31 05:49:10;;;;;;;3.60;2.20;;;;;;;2.85;100.00;99318.85;105859;1253;68660;-61
2023/03/31 05:51:39;;;;;;;3.80;2.00;;;;;;;2.91;100.00;99315.84;106026;1254;73054;-66
2023/03/31 05:54:08;;;;;;;3.10;1.80;;;;;;;2.95;100.00;99321.29;105786;1253;61324;-63
2023/03/31 05:56:36;;;;;;;3.00;1.80;;;;;;;3.02;100.00;99328.64;105834;1252;60974;-61
2023/03/31 05:59:05;;;;;;;4.70;2.40;;;;;;;3.10;100.00;99330.43;106060;1253;74481;-61
2023/03/31 06:01:34;;;;;;;3.50;1.70;;;;;;;3.23;100.00;99328.75;106166;1253;67687;-63
2023/03/31 06:04:03;;;;;;;3.50;1.90;;;;;;;3.41;100.00;99332.38;105530;1256;74294;-62
2023/03/31 06:06:33;;;;;;;3.70;2.00;;;;;;;3.64;100.00;99334.00;105969;1255;61326;-61
2023/03/31 06:09:06;;;;;;;3.40;1.80;;;;;;;3.98;100.00;99333.23;105869;1253;60904;-62
2023/03/31 06:11:35;;;;;;;3.90;1.80;;;;;;;4.44;100.00;99332.73;105879;1256;75816;-63
2023/03/31 06:14:04;;;;;;;5.40;2.40;;;;;;;4.97;100.00;99324.74;105651;1255;66803;-61
2023/03/31 06:16:32;;;;;;;4.90;2.60;;;;;;;5.63;100.00;99325.06;105912;1253;73886;-61
2023/03/31 06:19:01;;;;;;;5.10;2.60;;;;;;;6.21;100.00;99322.27;105886;1253;61785;-62
2023/03/31 06:21:29;;;;;;;5.90;3.20;;;;;;;6.66;100.00;99319.91;106187;1251;61024;-64
2023/03/31 06:23:59;;;;;;;5.70;4.00;;;;;;;7.22;100.00;99320.38;105946;1253;75102;-64
2023/03/31 06:26:28;;;;;;;5.40;3.30;;;;;;;7.76;100.00;99318.00;105757;1256;68602;-65
2023/03/31 06:28:56;;;;;;;4.90;3.10;;;;;;;8.29;100.00;99313.98;106355;1253;74316;-63
2023/03/31 06:31:25;;;;;;;4.70;2.80;;;;;;;8.91;100.00;99307.68;105919;1255;61812;-69
2023/03/31 06:33:54;;;;;;;3.60;2.50;;;;;;;9.33;100.00;99303.74;106075;1256;61848;-65
2023/03/31 06:36:23;;;;;;;4.80;2.50;;;;;;;9.72;100.00;99300.41;105897;1252;73560;-62
2023/03/31 06:38:51;;;;;;;3.50;1.90;;;;;;;10.25;100.00;99296.42;105832;1251;67075;-60
2023/03/31 06:41:21;;;;;;;4.30;1.90;;;;;;;11.00;100.00;99298.63;105821;1257;72785;-61
2023/03/31 06:43:50;;;;;;;3.90;1.80;;;;;;;11.58;100.00;99302.19;105987;1256;60764;-65
2023/03/31 06:46:18;;;;;;;2.90;1.80;;;;;;;11.78;100.00;99302.52;105984;1251;61695;-62
2023/03/31 06:48:48;;;;;;;4.00;1.90;;;;;;;11.98;100.00;99298.84;106419;1252;74164;-63
2023/03/31 06:51:19;;;;;;;3.10;1.80;;;;;;;12.23;100.00;99297.61;105823;1251;68722;-67
2023/03/31 06:53:48;;;;;;;2.90;1.90;;;;;;;12.38;100.00;99297.89;105846;1253;73384;-66
2023/03/31 06:56:17;;;;;;;3.40;1.70;;;;;;;12.55;100.00;99294.98;105892;1251;61679;-61
2023/03/31 06:58:47;;;;;;;3.30;1.60;;;;;;;12.76;100.00;99296.91;105846;1251;61614;-62
2023/03/31 07:01:15;;;;;;;3.80;2.00;;;;;;;12.97;100.00;99295.23;106416;1251;74416;-61
2023/03/31 07:03:46;;;;;;;2.90;1.70;;;;;;;13.16;99.82;99297.48;105863;1252;66848;-61
2023/03/31 07:06:15;;;;;;;3.40;1.60;;;;;;;13.21;94.26;99299.65;105782;1252;72660;-58
2023/03/31 07:08:44;;;;;;;2.40;1.60;;;;;;;13.14;90.29;99305.34;105923;1256;60702;-58
2023/03/31 07:11:13;;;;;;;3.10;1.80;;;;;;;13.03;89.10;99301.50;106064;1253;61838;-61
2023/03/31 07:13:42;;;;;;;2.60;1.70;;;;;;;12.95;91.13;99300.73;106111;1255;75132;-64
2023/03/31 07:16:12;;;;;;;3.10;1.80;;;;;;;13.01;87.56;99293.79;105838;1253;66954;-60
2023/03/31 07:18:42;;;;;;;2.60;1.40;;;;;;;13.01;85.36;99296.85;105810;1254;74190;-60
2023/03/31 07:21:11;;;;;;;3.40;2.00;;;;;;;12.93;83.52;99298.61;105566;1256;61742;-61
2023/03/31 07:23:40;;;;;;;4.40;1.80;;;;;;;12.86;84.20;99305.39;106031;1251;61137;-63
2023/03/31 07:26:10;;;;;;;2.80;1.80;;;;;;;12.92;89.16;99306.95;105927;1251;75287;-60
2023/03/31 07:28:39;;;;;;;3.30;1.50;;;;;;;13.18;89.14;99309.02;105893;1259;68409;-60
2023/03/31 07:31:12;;;;;;;3.00;1.40;;;;;;;13.39;82.24;99308.30;105726;1251;74554;-61
2023/03/31 07:33:40;;;;;;;2.70;1.30;;;;;;;13.36;77.17;99310.52;105722;1253;61077;-63
2023/03/31 07:36:09;;;;;;;2.20;1.40;;;;;;;13.24;75.64;99312.90;105679;1251;60741;-59
2023/03/31 07:38:45;;;;;;;2.60;1.70;;;;;;;13.03;73.91;99316.30;105590;1251;75011;-60
2023/03/31 07:41:16;;;;;;;3.10;1.90;;;;;;;12.71;79.88;99321.10;105798;1251;68646;-58
2023/03/31 07:43:45;;;;;;;3.90;2.00;;;;;;;12.49;86.11;99326.97;105964;1256;74158;-66
2023/03/31 07:46:25;;;;;;;2.90;1.70;;;;;;;12.47;90.65;99329.36;105742;1256;60854;-58
2023/03/31 07:48:54;;;;;;;3.20;2.00;;;;;;;12.63;91.14;99332.38;105879;1251;62318;-58
2023/03/31 07:51:25;;;;;;;4.20;2.00;;;;;;;12.88;88.67;99331.07;105691;1253;74397;-59
2023/03/31 07:53:54;;;;;;;3.40;1.90;;;;;;;13.05;86.58;99328.02;105662;1256;68497;-59
2023/03/31 07:56:23;;;;;;;3.00;1.80;;;;;;;13.02;77.20;99329.41;105996;1253;73555;-62
2023/03/31 07:58:52;;;;;;;2.90;1.70;;;;;;;12.80;78.82;99339.33;105882;1253;61966;-59
2023/03/31 08:01:27;;;;;;;3.00;1.90;;;;;;;12.80;83.86;99339.86;106100;1253;60843;-75
2023/03/31 08:03:57;;;;;;;3.80;2.20;;;;;;;12.93;80.89;99331.37;106187;1255;75129;-59
2023/03/31 08:06:27;;;;;;;3.30;1.90;;;;;;;12.95;75.66;99334.92;105787;1252;68685;-59
2023/03/31 08:08:56;;;;;;;5.10;2.60;;;;;;;12.88;76.62;99331.15;106152;1253;74233;-62
2023/03/31 08:11:25;;;;;;;3.10;2.10;;;;;;;12.87;76.49;99330.59;106370;1253;61367;-60
2023/03/31 08:13:54;;;;;;;3.20;2.00;;;;;;;12.92;73.43;99332.54;105720;1251;61895;-59
2023/03/31 08:16:23;;;;;;;2.80;1.50;;;;;;;12.74;71.25;99334.62;105886;1254;75692;-63
2023/03/31 08:18:53;;;;;;;3.70;1.70;;;;;;;12.56;75.67;99338.20;105890;1256;67755;-60
2023/03/31 08:21:21;;;;;;;4.30;2.00;;;;;;;12.62;75.28;99341.83;105791;1256;72929;-59
2023/03/31 08:24:00;;;;;;;3.50;2.00;;;;;;;12.57;73.47;99346.31;105609;1253;61690;-68
2023/03/31 08:26:31;;;;;;;3.70;2.40;;;;;;;12.47;74.66;99351.77;105984;1252;60677;-59
2023/03/31 08:29:00;;;;;;;3.90;1.90;;;;;;;12.44;75.21;99354.42;105938;1251;75304;-60
2023/03/31 08:31:29;;;;;;;3.90;2.00;;;;;;;12.41;75.11;99349.94;105931;1253;68614;-60
2023/03/31 08:33:58;;;;;;;4.00;2.40;;;;;;;12.23;74.22;99349.36;105814;1254;74250;-59
2023/03/31 08:36:29;;;;;;;3.50;2.00;;;;;;;12.07;78.62;99352.99;105703;1253;62186;-60
2023/03/31 08:38:58;;;;;;;3.90;2.10;;;;;;;12.13;83.08;99346.73;105813;1252;61892;-59
2023/03/31 08:41:43;;;;;;;4.60;2.20;;;;;;;12.28;81.38;99346.70;105794;1251;75304;-61
2023/03/31 08:44:36;;;;;;;3.20;2.30;;;;;;;12.37;81.18;99344.91;105831;1256;68281;-60
2023/03/31 08:47:06;;;;;;;4.80;2.50;;;;;;;12.59;82.32;99342.11;105855;1253;74629;-61
2023/03/31 08:49:41;;;;;;;3.50;2.00;;;;;;;12.78;80.46;99341.69;106075;1252;61968;-64
2023/03/31 08:52:15;;;;;;;2.60;1.60;;;;;;;12.92;79.74;99340.95;105734;1252;61436;-62
2023/03/31 08:54:46;;;;;;;4.10;1.80;;;;;;;13.08;72.58;99338.25;105775;1257;74904;-62
2023/03/31 08:57:24;;;;;;;3.40;2.00;;;;;;;12.99;69.47;99337.91;105446;1252;68477;-62
2023/03/31 08:59:57;;;;;;;3.10;1.50;;;;;;;12.99;71.84;99338.90;105786;1253;74569;-60
2023/03/31 09:02:48;;;;;;;3.60;1.60;;;;;;;13.11;66.50;99343.20;106068;1257;60934;-64
2023/03/31 09:05:35;;;;;;;3.10;1.60;;;;;;;13.21;61.60;99343.25;105846;1253;60730;-60
2023/03/31 09:08:16;;;;;;;2.80;1.70;;;;;;;13.23;60.58;99339.98;105982;1255;75256;-60
2023/03/31 09:10:55;;;;;;;4.50;1.90;;;;;;;13.19;58.18;99337.71;105728;1251;68477;-62
2023/03/31 09:13:33;;;;;;;6.80;1.60;;;;;;;13.01;55.99;99332.99;105612;1257;73912;-62
2023/03/31 09:16:03;;;;;;;4.00;2.10;;;;;;;12.77;56.15;99342.33;105940;1255;61582;-61
2023/03/31 09:18:36;;;;;;;4.40;1.80;;;;;;;12.58;57.61;99347.23;105729;1253;61145;-60
2023/03/31 09:21:11;;;;;;;4.90;1.60;;;;;;;12.52;59.83;99347.21;105717;1258;75334;-61
2023/03/31 09:23:43;;;;;;;2.80;1.30;;;;;;;12.55;56.38;99354.63;105808;1253;67741;-60
2023/03/31 09:26:25;;;;;;;3.20;1.80;;;;;;;12.41;57.82;99356.73;105761;1252;73386;-61
2023/03/31 09:28:56;;;;;;;3.00;1.30;;;;;;;12.20;59.35;99363.29;105865;1254;62090;-67
2023/03/31 09:31:24;;;;;;;3.10;1.50;;;;;;;12.05;61.88;99369.25;105894;1252;60577;-62
2023/03/31 09:33:58;;;;;;;3.20;1.60;;;;;;;11.97;65.26;99361.57;105802;1253;74268;-68
2023/03/31 09:36:27;;;;;;;3.60;1.60;;;;;;;11.88;68.93;99366.63;105663;1256;68447;-66
2023/03/31 09:38:57;;;;;;;3.50;1.70;;;;;;;11.92;67.79;99365.41;105866;1253;74213;-71
2023/03/31 09:41:26;;;;;;;5.90;1.90;;;;;;;11.87;66.88;99366.23;105864;1253;61838;-69
2023/03/31 09:43:55;;;;;;;3.50;1.70;;;;;;;11.77;66.89;99358.56;106477;1252;61785;-71
2023/03/31 09:46:34;;;;;;;4.40;2.10;;;;;;;11.62;67.64;99363.98;106360;1253;74972;-70
2023/03/31 09:49:10;;;;;;;3.60;1.90;;;;;;;11.53;70.26;99373.10;106239;1253;68655;-72
2023/03/31 09:51:41;;;;;;;3.50;1.70;;;;;;;11.60;70.20;99369.80;106402;1253;72608;-72
2023/03/31 09:54:21;;;;;;;4.40;1.70;;;;;;;11.64;71.65;99371.06;106437;1253;61707;-72
2023/03/31 09:56:52;;;;;;;3.10;1.70;;;;;;;11.71;69.97;99368.21;106304;1257;60762;-75
2023/03/31 09:59:33;;;;;;;2.40;1.20;;;;;;;11.78;70.77;99373.57;106435;1258;75382;-75
2023/03/31 10:02:20;;;;;;;3.90;1.20;;;;;;;11.91;72.25;99371.95;106318;1252;68845;-75
2023/03/31 10:04:49;;;;;;;2.40;1.10;;;;;;;11.87;65.96;99369.55;106162;1253;74191;-77
2023/03/31 10:07:22;;;;;;;2.40;1.40;;;;;;;11.68;66.73;99372.37;106166;1253;61633;-77
2023/03/31 10:09:52;;;;;;;3.40;1.40;;;;;;;11.62;67.79;99364.56;106555;1253;60407;-79
2023/03/31 10:12:23;;;;;;;2.80;1.20;;;;;;;11.56;69.80;99375.30;106259;1255;75307;-82
2023/03/31 10:14:53;;;;;;;2.00;0.90;;;;;;;11.56;69.44;99378.27;106244;1256;67595;-82
2023/03/31 10:17:23;;;;;;;3.70;1.70;;;;;;;11.46;68.04;99377.71;106324;1253;74156;-81
2023/03/31 10:19:56;;;;;;;2.80;1.40;;;;;;;11.36;68.52;99379.95;106464;1252;61920;-80
2023/03/31 10:22:29;;;;;;;2.80;1.30;;;;;;;11.33;69.28;99377.31;106208;1257;60870;-80
2023/03/31 10:25:09;;;;;;;4.20;1.20;;;;;;;11.32;70.78;99375.80;106466;1256;75421;-75
2023/03/31 10:27:46;;;;;;;2.80;1.30;;;;;;;11.40;71.64;99377.88;106239;1251;68311;-74
2023/03/31 10:30:20;;;;;;;2.60;1.40;;;;;;;11.41;68.53;99374.46;106413;1256;73885;-72
2023/03/31 10:32:48;;;;;;;3.10;1.10;;;;;;;11.16;66.55;99376.11;106346;1256;61832;-71
2023/03/31 10:35:34;;;;;;;2.30;1.00;;;;;;;10.90;70.50;99378.88;106221;1253;60642;-72
2023/03/31 10:38:09;;;;;;;3.20;1.60;;;;;;;10.67;71.97;99381.31;106452;1251;74260;-75
2023/03/31 10:40:39;;;;;;;2.90;1.30;;;;;;;10.44;74.90;99387.30;106217;1251;68613;-75
2023/03/31 10:43:15;;;;;;;3.70;1.40;;;;;;;10.23;75.69;99393.88;106120;1253;73173;-71
2023/03/31 10:45:48;;;;;;;2.80;1.30;;;;;;;10.06;85.65;99395.52;106291;1256;60893;-71
2023/03/31 10:48:30;;;;;;;3.20;1.30;;;;;;;10.14;87.99;99396.03;106295;1257;62217;-70
2023/03/31 10:51:27;;;;;;;3.00;1.50;;;;;;;10.17;87.30;99400.88;106396;1253;74407;-71
2023/03/31 10:54:02;;;;;;;2.80;1.70;;;;;;;10.05;90.22;99397.52;106263;1253;67722;-73
2023/03/31 10:57:02;;;;;;;3.80;2.10;;;;;;;10.08;96.43;99399.38;106706;1252;73533;-71
2023/03/31 10:59:40;;;;;;;3.90;2.20;;;;;;;10.19;94.84;99397.20;106565;1254;60289;-71
2023/03/31 11:02:39;;;;;;;3.90;2.00;;;;;;;10.20;96.45;99395.36;106423;1252;61794;-70
2023/03/31 11:05:14;;;;;;;4.60;2.50;;;;;;;10.30;99.80;99396.02;106517;1251;74078;-70
2023/03/31 11:07:58;;;;;;;4.70;2.20;;;;;;;10.42;99.77;99392.67;106338;1255;68376;-70
2023/03/31 11:11:08;;;;;;;5.70;2.50;;;;;;;10.60;100.00;99395.16;105830;1253;74227;-70
2023/03/31 11:13:42;;;;;;;4.00;2.40;;;;;;;10.68;96.09;99393.15;105865;1256;60879;-70
2023/03/31 11:16:32;;;;;;;5.10;2.20;;;;;;;10.70;94.08;99388.85;105968;1256;60294;-70
2023/03/31 11:19:20;;;;;;;4.40;1.90;;;;;;;10.78;90.44;99390.95;105628;1253;75361;-70
2023/03/31 11:22:08;;;;;;;4.60;2.40;;;;;;;10.79;86.52;99395.31;105773;1253;68776;-70
2023/03/31 11:24:46;;;;;;;4.60;1.70;;;;;;;10.72;81.74;99390.96;105827;1256;73176;-71
2023/03/31 11:27:36;;;;;;;4.00;2.20;;;;;;;10.47;77.82;99388.56;105764;1256;61641;-72
2023/03/31 11:30:27;;;;;;;4.70;2.30;;;;;;;10.10;82.16;99392.80;105784;1252;61879;-73
2023/03/31 11:33:03;;;;;;;3.80;1.80;;;;;;;9.87;87.47;99393.75;105715;1259;75199;-72
2023/03/31 11:35:46;;;;;;;3.80;1.80;;;;;;;9.77;89.01;99395.26;105767;1253;66660;-71
2023/03/31 11:38:34;;;;;;;3.30;1.50;;;;;;;9.70;87.82;99397.55;105845;1258;74508;-72
2023/03/31 11:41:33;;;;;;;4.80;1.90;;;;;;;9.70;91.18;99406.70;105792;1252;62108;-71
2023/03/31 11:44:04;;;;;;;3.20;1.40;;;;;;;9.82;91.64;99407.64;105887;1253;61603;-71
2023/03/31 11:46:50;;;;;;;2.70;1.40;;;;;;;9.84;87.27;99405.83;105875;1251;75111;-70
2023/03/31 11:49:23;;;;;;;3.40;1.60;;;;;;;9.66;86.11;99401.56;105586;1253;68679;-72
2023/03/31 11:51:58;;;;;;;2.90;1.70;;;;;;;9.50;93.37;99405.63;105538;1259;74380;-68
2023/03/31 11:54:31;;;;;;;3.80;1.80;;;;;;;9.43;92.97;99401.64;105852;1253;62100;-68
2023/03/31 11:57:12;;;;;;;3.10;1.40;;;;;;;9.35;94.18;99399.81;105724;1256;60485;-67
2023/03/31 11:59:41;;;;;;;3.50;1.50;;;;;;;9.34;96.47;99400.77;105874;1256;74742;-68
2023/03/31 12:02:17;;;;;;;3.20;1.70;;;;;;;9.43;98.40;99400.93;105797;1256;68786;-67